sensor_id;sensor_type;location;lat;lon;timestamp;pressure;altitude;pressure_sealevel;temperature;humidity
38197;BME280;26543;51.976;4.616;2022-08-19T00:00:27;52439.56;;;-140.72;100.00
38197;BME280;26543;51.976;4.616;2022-08-19T00:02:53;52498.41;;;-140.72;100.00
38197;BME280;26543;51.976;4.616;2022-08-19T00:05:20;52488.25;;;-140.72;100.00
38197;BME280;26543;51.976;4.616;2022-08-19T00:07:46;52496.38;;;-140.72;100.00
38197;BME280;26543;51.976;4.616;2022-08-19T00:10:13;52514.63;;;-140.72;100.00
38197;BME280;26543;51.976;4.616;2022-08-19T00:12:40;52508.56;;;-140.72;100.00
38197;BME280;26543;51.976;4.616;2022-08-19T00:15:08;52480.16;;;-140.72;100.00
38197;BME280;26543;51.976;4.616;2022-08-19T00:17:37;52573.50;;;-140.72;100.00
38197;BME280;26543;51.976;4.616;2022-08-19T00:20:03;52512.59;;;-140.72;100.00
38197;BME280;26543;51.976;4.616;2022-08-19T00:22:28;52496.38;;;-140.72;100.00
38197;BME280;26543;51.976;4.616;2022-08-19T00:24:54;52508.56;;;-140.72;100.00
38197;BME280;26543;51.976;4.616;2022-08-19T00:27:19;52470.00;;;-140.72;100.00
38197;BME280;26543;51.976;4.616;2022-08-19T00:29:44;52502.47;;;-140.72;100.00
38197;BME280;26543;51.976;4.616;2022-08-19T00:32:10;52494.34;;;-140.72;100.00
38197;BME280;26543;51.976;4.616;2022-08-19T00:34:35;52539.00;;;-140.72;100.00
38197;BME280;26543;51.976;4.616;2022-08-19T00:37:01;52528.84;;;-140.72;100.00
38197;BME280;26543;51.976;4.616;2022-08-19T00:39:26;52555.22;;;-140.72;100.00
38197;BME280;26543;51.976;4.616;2022-08-19T00:41:51;52500.44;;;-140.72;100.00
38197;BME280;26543;51.976;4.616;2022-08-19T00:44:23;52573.50;;;-140.72;100.00
38197;BME280;26543;51.976;4.616;2022-08-19T00:46:50;52514.63;;;-140.72;100.00
38197;BME280;26543;51.976;4.616;2022-08-19T00:49:26;52522.75;;;-140.72;100.00
38197;BME280;26543;51.976;4.616;2022-08-19T00:52:00;52518.69;;;-140.72;100.00
38197;BME280;26543;51.976;4.616;2022-08-19T00:54:26;52514.63;;;-140.72;100.00
38197;BME280;26543;51.976;4.616;2022-08-19T00:56:52;52569.44;;;-140.72;100.00
38197;BME280;26543;51.976;4.616;2022-08-19T00:59:19;52522.75;;;-140.72;100.00
38197;BME280;26543;51.976;4.616;2022-08-19T01:01:45;52536.97;;;-140.72;100.00
38197;BME280;26543;51.976;4.616;2022-08-19T01:04:11;52561.31;;;-140.72;100.00
38197;BME280;26543;51.976;4.616;2022-08-19T01:06:38;52482.16;;;-140.72;100.00
38197;BME280;26543;51.976;4.616;2022-08-19T01:09:06;52488.25;;;-140.72;100.00
38197;BME280;26543;51.976;4.616;2022-08-19T01:11:41;52512.59;;;-140.72;100.00
38197;BME280;26543;51.976;4.616;2022-08-19T01:14:07;52545.06;;;-140.72;100.00
38197;BME280;26543;51.976;4.616;2022-08-19T01:16:34;52532.91;;;-140.72;100.00
38197;BME280;26543;51.976;4.616;2022-08-19T01:19:00;52561.31;;;-140.72;100.00
38197;BME280;26543;51.976;4.616;2022-08-19T01:21:42;52524.78;;;-140.72;100.00
38197;BME280;26543;51.976;4.616;2022-08-19T01:24:11;52510.59;;;-140.72;100.00
38197;BME280;26543;51.976;4.616;2022-08-19T01:26:41;52526.81;;;-140.72;100.00
38197;BME280;26543;51.976;4.616;2022-08-19T01:29:09;52514.63;;;-140.72;100.00
38197;BME280;26543;51.976;4.616;2022-08-19T01:31:35;52549.13;;;-140.72;100.00
38197;BME280;26543;51.976;4.616;2022-08-19T01:34:03;52488.25;;;-140.72;100.00
38197;BME280;26543;51.976;4.616;2022-08-19T01:36:35;52518.69;;;-140.72;100.00
38197;BME280;26543;51.976;4.616;2022-08-19T01:39:05;52496.38;;;-140.72;100.00
38197;BME280;26543;51.976;4.616;2022-08-19T01:41:31;52543.03;;;-140.72;100.00
38197;BME280;26543;51.976;4.616;2022-08-19T01:43:57;52532.91;;;-140.72;100.00
38197;BME280;26543;51.976;4.616;2022-08-19T01:46:22;52512.59;;;-140.72;100.00
38197;BME280;26543;51.976;4.616;2022-08-19T01:48:48;52536.97;;;-140.72;100.00
38197;BME280;26543;51.976;4.616;2022-08-19T01:51:14;52524.78;;;-140.72;100.00
38197;BME280;26543;51.976;4.616;2022-08-19T01:53:40;52536.97;;;-140.72;100.00
38197;BME280;26543;51.976;4.616;2022-08-19T01:56:06;52569.44;;;-140.72;100.00
38197;BME280;26543;51.976;4.616;2022-08-19T01:58:36;52551.16;;;-140.72;100.00
38197;BME280;26543;51.976;4.616;2022-08-19T02:01:04;52541.03;;;-140.72;100.00
38197;BME280;26543;51.976;4.616;2022-08-19T02:03:30;52545.06;;;-140.72;100.00
38197;BME280;26543;51.976;4.616;2022-08-19T02:05:59;52518.69;;;-140.72;100.00
38197;BME280;26543;51.976;4.616;2022-08-19T02:08:29;52536.97;;;-140.72;100.00
38197;BME280;26543;51.976;4.616;2022-08-19T02:10:54;52573.50;;;-140.72;100.00
38197;BME280;26543;51.976;4.616;2022-08-19T02:13:20;52492.31;;;-140.72;100.00
38197;BME280;26543;51.976;4.616;2022-08-19T02:15:45;52539.00;;;-140.72;100.00
38197;BME280;26543;51.976;4.616;2022-08-19T02:18:11;52547.09;;;-140.72;100.00
38197;BME280;26543;51.976;4.616;2022-08-19T02:20:38;52522.75;;;-140.72;100.00
38197;BME280;26543;51.976;4.616;2022-08-19T02:23:05;52571.47;;;-140.72;100.00
38197;BME280;26543;51.976;4.616;2022-08-19T02:25:31;52545.06;;;-140.72;100.00
38197;BME280;26543;51.976;4.616;2022-08-19T02:27:56;52498.41;;;-140.72;100.00
38197;BME280;26543;51.976;4.616;2022-08-19T02:30:22;52559.28;;;-140.72;100.00
38197;BME280;26543;51.976;4.616;2022-08-19T02:32:47;52530.88;;;-140.72;100.00
38197;BME280;26543;51.976;4.616;2022-08-19T02:35:13;52518.69;;;-140.72;100.00
38197;BME280;26543;51.976;4.616;2022-08-19T02:37:40;52536.97;;;-140.72;100.00
38197;BME280;26543;51.976;4.616;2022-08-19T02:40:27;52543.03;;;-140.72;100.00
38197;BME280;26543;51.976;4.616;2022-08-19T02:42:52;52526.81;;;-140.72;100.00
38197;BME280;26543;51.976;4.616;2022-08-19T02:45:18;52545.06;;;-140.72;100.00
38197;BME280;26543;51.976;4.616;2022-08-19T02:47:43;52571.47;;;-140.72;100.00
38197;BME280;26543;51.976;4.616;2022-08-19T02:50:09;52581.59;;;-140.72;100.00
38197;BME280;26543;51.976;4.616;2022-08-19T02:52:35;52577.53;;;-140.72;100.00
38197;BME280;26543;51.976;4.616;2022-08-19T02:55:00;52532.91;;;-140.72;100.00
38197;BME280;26543;51.976;4.616;2022-08-19T02:57:26;52528.84;;;-140.72;100.00
38197;BME280;26543;51.976;4.616;2022-08-19T02:59:52;52551.16;;;-140.72;100.00
38197;BME280;26543;51.976;4.616;2022-08-19T03:02:19;52545.06;;;-140.72;100.00
38197;BME280;26543;51.976;4.616;2022-08-19T03:04:44;52567.41;;;-140.72;100.00
38197;BME280;26543;51.976;4.616;2022-08-19T03:07:13;52557.25;;;-140.72;100.00
38197;BME280;26543;51.976;4.616;2022-08-19T03:09:39;52534.94;;;-140.72;100.00
38197;BME280;26543;51.976;4.616;2022-08-19T03:12:05;52543.03;;;-140.72;100.00
38197;BME280;26543;51.976;4.616;2022-08-19T03:14:31;52490.28;;;-140.72;100.00
38197;BME280;26543;51.976;4.616;2022-08-19T03:16:57;52593.78;;;-140.72;100.00
38197;BME280;26543;51.976;4.616;2022-08-19T03:19:22;52543.03;;;-140.72;100.00
38197;BME280;26543;51.976;4.616;2022-08-19T03:21:48;52577.53;;;-140.72;100.00
38197;BME280;26543;51.976;4.616;2022-08-19T03:24:15;52565.38;;;-140.72;100.00
38197;BME280;26543;51.976;4.616;2022-08-19T03:26:49;52512.59;;;-140.72;100.00
38197;BME280;26543;51.976;4.616;2022-08-19T03:29:16;52545.06;;;-140.72;100.00
38197;BME280;26543;51.976;4.616;2022-08-19T03:31:42;52577.53;;;-140.72;100.00
38197;BME280;26543;51.976;4.616;2022-08-19T03:34:09;52545.06;;;-140.72;100.00
38197;BME280;26543;51.976;4.616;2022-08-19T03:36:37;52561.31;;;-140.72;100.00
38197;BME280;26543;51.976;4.616;2022-08-19T03:39:03;52569.44;;;-140.72;100.00
38197;BME280;26543;51.976;4.616;2022-08-19T03:41:35;52597.84;;;-140.72;100.00
38197;BME280;26543;51.976;4.616;2022-08-19T03:44:02;52569.44;;;-140.72;100.00
38197;BME280;26543;51.976;4.616;2022-08-19T03:46:30;52569.44;;;-140.72;100.00
38197;BME280;26543;51.976;4.616;2022-08-19T03:48:59;52561.31;;;-140.72;100.00
38197;BME280;26543;51.976;4.616;2022-08-19T03:51:28;52603.94;;;-140.72;100.00
38197;BME280;26543;51.976;4.616;2022-08-19T03:53:57;52567.41;;;-140.72;100.00
38197;BME280;26543;51.976;4.616;2022-08-19T03:56:23;52557.25;;;-140.72;100.00
38197;BME280;26543;51.976;4.616;2022-08-19T03:58:51;52565.38;;;-140.72;100.00
38197;BME280;26543;51.976;4.616;2022-08-19T04:01:20;52539.00;;;-140.72;100.00
38197;BME280;26543;51.976;4.616;2022-08-19T04:03:46;52601.91;;;-140.72;100.00
38197;BME280;26543;51.976;4.616;2022-08-19T04:06:20;52528.84;;;-140.72;100.00
38197;BME280;26543;51.976;4.616;2022-08-19T04:08:48;52530.88;;;-140.72;100.00
38197;BME280;26543;51.976;4.616;2022-08-19T04:11:26;52577.53;;;-140.72;100.00
38197;BME280;26543;51.976;4.616;2022-08-19T04:13:52;52539.00;;;-140.72;100.00
38197;BME280;26543;51.976;4.616;2022-08-19T04:16:19;52585.66;;;-140.72;100.00
38197;BME280;26543;51.976;4.616;2022-08-19T04:18:47;52549.13;;;-140.72;100.00
38197;BME280;26543;51.976;4.616;2022-08-19T04:21:25;52569.44;;;-140.72;100.00
38197;BME280;26543;51.976;4.616;2022-08-19T04:23:51;52518.69;;;-140.72;100.00
38197;BME280;26543;51.976;4.616;2022-08-19T04:26:20;52528.84;;;-140.72;100.00
38197;BME280;26543;51.976;4.616;2022-08-19T04:28:46;52563.34;;;-140.72;100.00
38197;BME280;26543;51.976;4.616;2022-08-19T04:31:14;52549.13;;;-140.72;100.00
38197;BME280;26543;51.976;4.616;2022-08-19T04:33:40;52528.84;;;-140.72;100.00
38197;BME280;26543;51.976;4.616;2022-08-19T04:36:06;52569.44;;;-140.72;100.00
38197;BME280;26543;51.976;4.616;2022-08-19T04:38:31;52559.28;;;-140.72;100.00
38197;BME280;26543;51.976;4.616;2022-08-19T04:40:57;52553.19;;;-140.72;100.00
38197;BME280;26543;51.976;4.616;2022-08-19T04:43:41;52551.16;;;-140.72;100.00
38197;BME280;26543;51.976;4.616;2022-08-19T04:46:08;52543.03;;;-140.72;100.00
38197;BME280;26543;51.976;4.616;2022-08-19T04:48:35;52532.91;;;-140.72;100.00
38197;BME280;26543;51.976;4.616;2022-08-19T04:51:04;52563.34;;;-140.72;100.00
38197;BME280;26543;51.976;4.616;2022-08-19T04:53:32;52528.84;;;-140.72;100.00
38197;BME280;26543;51.976;4.616;2022-08-19T04:55:58;52565.38;;;-140.72;100.00
38197;BME280;26543;51.976;4.616;2022-08-19T04:58:26;52514.63;;;-140.72;100.00
38197;BME280;26543;51.976;4.616;2022-08-19T05:00:53;52492.31;;;-140.72;100.00
38197;BME280;26543;51.976;4.616;2022-08-19T05:03:19;52520.72;;;-140.72;100.00
38197;BME280;26543;51.976;4.616;2022-08-19T05:05:46;52532.91;;;-140.72;100.00
38197;BME280;26543;51.976;4.616;2022-08-19T05:08:17;52504.50;;;-140.72;100.00
38197;BME280;26543;51.976;4.616;2022-08-19T05:10:45;52573.50;;;-140.72;100.00
38197;BME280;26543;51.976;4.616;2022-08-19T05:13:12;52528.84;;;-140.72;100.00
38197;BME280;26543;51.976;4.616;2022-08-19T05:15:37;52516.66;;;-140.72;100.00
38197;BME280;26543;51.976;4.616;2022-08-19T05:18:03;52549.13;;;-140.72;100.00
38197;BME280;26543;51.976;4.616;2022-08-19T05:20:47;52541.03;;;-140.72;100.00
38197;BME280;26543;51.976;4.616;2022-08-19T05:23:31;52524.78;;;-140.72;100.00
38197;BME280;26543;51.976;4.616;2022-08-19T05:25:56;52545.06;;;-140.72;100.00
38197;BME280;26543;51.976;4.616;2022-08-19T05:28:21;52526.81;;;-140.72;100.00
38197;BME280;26543;51.976;4.616;2022-08-19T05:30:50;52492.31;;;-140.72;100.00
38197;BME280;26543;51.976;4.616;2022-08-19T05:33:16;52539.00;;;-140.72;100.00
38197;BME280;26543;51.976;4.616;2022-08-19T05:35:41;52528.84;;;-140.72;100.00
38197;BME280;26543;51.976;4.616;2022-08-19T05:38:08;52543.03;;;-140.72;100.00
38197;BME280;26543;51.976;4.616;2022-08-19T05:40:38;52539.00;;;-140.72;100.00
38197;BME280;26543;51.976;4.616;2022-08-19T05:43:05;52514.63;;;-140.72;100.00
38197;BME280;26543;51.976;4.616;2022-08-19T05:45:32;52512.59;;;-140.72;100.00
38197;BME280;26543;51.976;4.616;2022-08-19T05:47:57;52524.78;;;-140.72;100.00
38197;BME280;26543;51.976;4.616;2022-08-19T05:50:24;52528.84;;;-140.72;100.00
38197;BME280;26543;51.976;4.616;2022-08-19T05:52:52;52530.88;;;-140.72;100.00
38197;BME280;26543;51.976;4.616;2022-08-19T05:55:17;52520.72;;;-140.72;100.00
38197;BME280;26543;51.976;4.616;2022-08-19T05:57:45;52504.50;;;-140.72;100.00
38197;BME280;26543;51.976;4.616;2022-08-19T06:00:11;52534.94;;;-140.72;100.00
38197;BME280;26543;51.976;4.616;2022-08-19T06:02:37;52506.53;;;-140.72;100.00
38197;BME280;26543;51.976;4.616;2022-08-19T06:05:04;52506.53;;;-140.72;100.00
38197;BME280;26543;51.976;4.616;2022-08-19T06:07:32;52524.78;;;-140.72;100.00
38197;BME280;26543;51.976;4.616;2022-08-19T06:09:58;52498.41;;;-140.72;100.00
38197;BME280;26543;51.976;4.616;2022-08-19T06:12:23;52524.78;;;-140.72;100.00
38197;BME280;26543;51.976;4.616;2022-08-19T06:14:54;52524.78;;;-140.72;100.00
38197;BME280;26543;51.976;4.616;2022-08-19T06:17:20;52508.56;;;-140.72;100.00
38197;BME280;26543;51.976;4.616;2022-08-19T06:19:47;52504.50;;;-140.72;100.00
38197;BME280;26543;51.976;4.616;2022-08-19T06:22:15;52522.75;;;-140.72;100.00
38197;BME280;26543;51.976;4.616;2022-08-19T06:24:41;52496.38;;;-140.72;100.00
38197;BME280;26543;51.976;4.616;2022-08-19T06:27:06;52536.97;;;-140.72;100.00
38197;BME280;26543;51.976;4.616;2022-08-19T06:29:31;52514.63;;;-140.72;100.00
38197;BME280;26543;51.976;4.616;2022-08-19T06:31:59;52490.28;;;-140.72;100.00
38197;BME280;26543;51.976;4.616;2022-08-19T06:34:27;52484.19;;;-140.72;100.00
38197;BME280;26543;51.976;4.616;2022-08-19T06:36:53;52484.19;;;-140.72;100.00
38197;BME280;26543;51.976;4.616;2022-08-19T06:39:22;52480.16;;;-140.72;100.00
38197;BME280;26543;51.976;4.616;2022-08-19T06:41:51;52504.50;;;-140.72;100.00
38197;BME280;26543;51.976;4.616;2022-08-19T06:44:20;52492.31;;;-140.72;100.00
38197;BME280;26543;51.976;4.616;2022-08-19T06:46:46;52506.53;;;-140.72;100.00
38197;BME280;26543;51.976;4.616;2022-08-19T06:49:13;52478.13;;;-140.72;100.00
38197;BME280;26543;51.976;4.616;2022-08-19T06:51:41;52451.72;;;-140.72;100.00
38197;BME280;26543;51.976;4.616;2022-08-19T06:54:07;52476.09;;;-140.72;100.00
38197;BME280;26543;51.976;4.616;2022-08-19T06:56:33;52486.22;;;-140.72;100.00
38197;BME280;26543;51.976;4.616;2022-08-19T06:59:08;52467.97;;;-140.72;100.00
38197;BME280;26543;51.976;4.616;2022-08-19T07:01:41;52439.56;;;-140.72;100.00
38197;BME280;26543;51.976;4.616;2022-08-19T07:04:08;52437.53;;;-140.72;100.00
38197;BME280;26543;51.976;4.616;2022-08-19T07:06:34;52411.16;;;-140.72;100.00
38197;BME280;26543;51.976;4.616;2022-08-19T07:09:00;52437.53;;;-140.72;100.00
38197;BME280;26543;51.976;4.616;2022-08-19T07:11:26;52447.69;;;-140.72;100.00
38197;BME280;26543;51.976;4.616;2022-08-19T07:13:52;52433.47;;;-140.72;100.00
38197;BME280;26543;51.976;4.616;2022-08-19T07:16:19;52417.25;;;-140.72;100.00
38197;BME280;26543;51.976;4.616;2022-08-19T07:18:46;52403.03;;;-140.72;100.00
38197;BME280;26543;51.976;4.616;2022-08-19T07:21:14;52407.09;;;-140.72;100.00
38197;BME280;26543;51.976;4.616;2022-08-19T07:23:42;52465.94;;;-140.72;100.00
38197;BME280;26543;51.976;4.616;2022-08-19T07:26:14;52449.72;;;-140.72;100.00
38197;BME280;26543;51.976;4.616;2022-08-19T07:28:40;52429.41;;;-140.72;100.00
38197;BME280;26543;51.976;4.616;2022-08-19T07:31:17;52415.22;;;-140.72;100.00
38197;BME280;26543;51.976;4.616;2022-08-19T07:33:44;52392.88;;;-140.72;100.00
38197;BME280;26543;51.976;4.616;2022-08-19T07:36:11;52427.38;;;-140.72;100.00
38197;BME280;26543;51.976;4.616;2022-08-19T07:38:39;52374.63;;;-140.72;100.00
38197;BME280;26543;51.976;4.616;2022-08-19T07:41:06;52405.06;;;-140.72;100.00
38197;BME280;26543;51.976;4.616;2022-08-19T07:43:31;52370.56;;;-140.72;100.00
38197;BME280;26543;51.976;4.616;2022-08-19T07:45:57;52403.03;;;-140.72;100.00
38197;BME280;26543;51.976;4.616;2022-08-19T07:48:24;52437.53;;;-140.72;100.00
38197;BME280;26543;51.976;4.616;2022-08-19T07:50:53;52411.16;;;-140.72;100.00
38197;BME280;26543;51.976;4.616;2022-08-19T07:53:23;52368.53;;;-140.72;100.00
38197;BME280;26543;51.976;4.616;2022-08-19T07:55:50;52398.97;;;-140.72;100.00
38197;BME280;26543;51.976;4.616;2022-08-19T07:58:19;52398.97;;;-140.72;100.00
38197;BME280;26543;51.976;4.616;2022-08-19T08:00:46;52376.66;;;-140.72;100.00
38197;BME280;26543;51.976;4.616;2022-08-19T08:03:13;52421.28;;;-140.72;100.00
38197;BME280;26543;51.976;4.616;2022-08-19T08:05:39;52431.44;;;-140.72;100.00
38197;BME280;26543;51.976;4.616;2022-08-19T08:08:24;52407.09;;;-140.72;100.00
38197;BME280;26543;51.976;4.616;2022-08-19T08:11:07;52396.94;;;-140.72;100.00
38197;BME280;26543;51.976;4.616;2022-08-19T08:13:35;52421.28;;;-140.72;100.00
38197;BME280;26543;51.976;4.616;2022-08-19T08:16:02;52423.31;;;-140.72;100.00
38197;BME280;26543;51.976;4.616;2022-08-19T08:18:28;52364.47;;;-140.72;100.00
38197;BME280;26543;51.976;4.616;2022-08-19T08:20:57;52413.19;;;-140.72;100.00
38197;BME280;26543;51.976;4.616;2022-08-19T08:23:23;52411.16;;;-140.72;100.00
38197;BME280;26543;51.976;4.616;2022-08-19T08:25:53;52376.66;;;-140.72;100.00
38197;BME280;26543;51.976;4.616;2022-08-19T08:28:20;52374.63;;;-140.72;100.00
38197;BME280;26543;51.976;4.616;2022-08-19T08:30:48;52354.34;;;-140.72;100.00
38197;BME280;26543;51.976;4.616;2022-08-19T08:33:18;52372.59;;;-140.72;100.00
38197;BME280;26543;51.976;4.616;2022-08-19T08:35:44;52340.13;;;-140.72;100.00
38197;BME280;26543;51.976;4.616;2022-08-19T08:38:10;52364.47;;;-140.72;100.00
38197;BME280;26543;51.976;4.616;2022-08-19T08:40:42;52313.75;;;-140.72;100.00
38197;BME280;26543;51.976;4.616;2022-08-19T08:46:08;52311.72;;;-140.72;100.00
38197;BME280;26543;51.976;4.616;2022-08-19T08:48:42;52364.47;;;-140.72;100.00
38197;BME280;26543;51.976;4.616;2022-08-19T08:51:15;52334.03;;;-140.72;100.00
38197;BME280;26543;51.976;4.616;2022-08-19T08:53:44;52277.22;;;-140.72;100.00
38197;BME280;26543;51.976;4.616;2022-08-19T08:56:12;52275.19;;;-140.72;100.00
38197;BME280;26543;51.976;4.616;2022-08-19T08:58:48;52315.78;;;-140.72;100.00
38197;BME280;26543;51.976;4.616;2022-08-19T09:01:16;52338.09;;;-140.72;100.00
38197;BME280;26543;51.976;4.616;2022-08-19T09:03:42;52311.72;;;-140.72;100.00
38197;BME280;26543;51.976;4.616;2022-08-19T09:06:22;52208.25;;;-140.72;100.00
38197;BME280;26543;51.976;4.616;2022-08-19T09:09:03;52244.78;;;-140.72;100.00
38197;BME280;26543;51.976;4.616;2022-08-19T09:11:55;52198.09;;;-140.72;100.00
38197;BME280;26543;51.976;4.616;2022-08-19T09:16:52;52240.72;;;-140.72;100.00
38197;BME280;26543;51.976;4.616;2022-08-19T09:19:18;52159.56;;;-140.72;100.00
38197;BME280;26543;51.976;4.616;2022-08-19T09:21:43;52141.28;;;-140.72;100.00
38197;BME280;26543;51.976;4.616;2022-08-19T09:24:10;52125.06;;;-140.72;100.00
38197;BME280;26543;51.976;4.616;2022-08-19T09:26:35;52149.41;;;-140.72;100.00
38197;BME280;26543;51.976;4.616;2022-08-19T09:29:01;52114.91;;;-140.72;100.00
38197;BME280;26543;51.976;4.616;2022-08-19T09:31:30;52147.38;;;-140.72;100.00
38197;BME280;26543;51.976;4.616;2022-08-19T09:33:55;52151.44;;;-140.72;100.00
38197;BME280;26543;51.976;4.616;2022-08-19T09:36:26;52171.72;;;-140.72;100.00
38197;BME280;26543;51.976;4.616;2022-08-19T09:38:55;52167.66;;;-140.72;100.00
38197;BME280;26543;51.976;4.616;2022-08-19T09:41:23;52155.50;;;-140.72;100.00
38197;BME280;26543;51.976;4.616;2022-08-19T09:43:51;52212.31;;;-140.72;100.00
38197;BME280;26543;51.976;4.616;2022-08-19T09:46:18;52240.72;;;-140.72;100.00
38197;BME280;26543;51.976;4.616;2022-08-19T09:48:44;52287.38;;;-140.72;100.00
38197;BME280;26543;51.976;4.616;2022-08-19T09:51:14;52325.94;;;-140.72;100.00
38197;BME280;26543;51.976;4.616;2022-08-19T09:53:41;52321.88;;;-140.72;100.00
38197;BME280;26543;51.976;4.616;2022-08-19T09:56:06;52368.53;;;-140.72;100.00
38197;BME280;26543;51.976;4.616;2022-08-19T09:58:33;52346.22;;;-140.72;100.00
38197;BME280;26543;51.976;4.616;2022-08-19T10:01:00;52346.22;;;-140.72;100.00
38197;BME280;26543;51.976;4.616;2022-08-19T10:03:27;52368.53;;;-140.72;100.00
38197;BME280;26543;51.976;4.616;2022-08-19T10:05:52;52384.78;;;-140.72;100.00
38197;BME280;26543;51.976;4.616;2022-08-19T10:08:24;52374.63;;;-140.72;100.00
38197;BME280;26543;51.976;4.616;2022-08-19T10:10:51;52405.06;;;-140.72;100.00
38197;BME280;26543;51.976;4.616;2022-08-19T10:13:23;52398.97;;;-140.72;100.00
38197;BME280;26543;51.976;4.616;2022-08-19T10:15:51;52437.53;;;-140.72;100.00
38197;BME280;26543;51.976;4.616;2022-08-19T10:18:18;52366.50;;;-140.72;100.00
38197;BME280;26543;51.976;4.616;2022-08-19T10:20:44;52374.63;;;-140.72;100.00
38197;BME280;26543;51.976;4.616;2022-08-19T10:23:11;52303.59;;;-140.72;100.00
38197;BME280;26543;51.976;4.616;2022-08-19T10:25:37;52364.47;;;-140.72;100.00
38197;BME280;26543;51.976;4.616;2022-08-19T10:28:02;52336.06;;;-140.72;100.00
38197;BME280;26543;51.976;4.616;2022-08-19T10:30:28;52354.34;;;-140.72;100.00
38197;BME280;26543;51.976;4.616;2022-08-19T10:32:54;52350.28;;;-140.72;100.00
38197;BME280;26543;51.976;4.616;2022-08-19T10:35:19;52354.34;;;-140.72;100.00
38197;BME280;26543;51.976;4.616;2022-08-19T10:37:45;52354.34;;;-140.72;100.00
38197;BME280;26543;51.976;4.616;2022-08-19T10:40:11;52309.69;;;-140.72;100.00
38197;BME280;26543;51.976;4.616;2022-08-19T10:42:36;52299.56;;;-140.72;100.00
38197;BME280;26543;51.976;4.616;2022-08-19T10:45:03;52279.25;;;-140.72;100.00
38197;BME280;26543;51.976;4.616;2022-08-19T10:47:29;52185.94;;;-140.72;100.00
38197;BME280;26543;51.976;4.616;2022-08-19T10:49:55;52121.00;;;-140.72;100.00
38197;BME280;26543;51.976;4.616;2022-08-19T10:52:44;52070.28;;;-140.72;100.00
38197;BME280;26543;51.976;4.616;2022-08-19T10:55:10;52110.84;;;-140.72;100.00
38197;BME280;26543;51.976;4.616;2022-08-19T10:57:53;52145.34;;;-140.72;100.00
38197;BME280;26543;51.976;4.616;2022-08-19T11:00:20;52179.84;;;-140.72;100.00
38197;BME280;26543;51.976;4.616;2022-08-19T11:02:46;52214.34;;;-140.72;100.00
38197;BME280;26543;51.976;4.616;2022-08-19T11:05:12;52232.59;;;-140.72;100.00
38197;BME280;26543;51.976;4.616;2022-08-19T11:07:41;52267.09;;;-140.72;100.00
38197;BME280;26543;51.976;4.616;2022-08-19T11:10:08;52297.53;;;-140.72;100.00
38197;BME280;26543;51.976;4.616;2022-08-19T11:12:36;52307.66;;;-140.72;100.00
38197;BME280;26543;51.976;4.616;2022-08-19T11:15:03;52321.88;;;-140.72;100.00
38197;BME280;26543;51.976;4.616;2022-08-19T11:17:29;52313.75;;;-140.72;100.00
38197;BME280;26543;51.976;4.616;2022-08-19T11:19:56;52358.41;;;-140.72;100.00
38197;BME280;26543;51.976;4.616;2022-08-19T11:22:21;52372.59;;;-140.72;100.00
38197;BME280;26543;51.976;4.616;2022-08-19T11:24:47;52374.63;;;-140.72;100.00
38197;BME280;26543;51.976;4.616;2022-08-19T11:27:12;52354.34;;;-140.72;100.00
38197;BME280;26543;51.976;4.616;2022-08-19T11:29:38;52360.44;;;-140.72;100.00
38197;BME280;26543;51.976;4.616;2022-08-19T11:32:06;52394.91;;;-140.72;100.00
38197;BME280;26543;51.976;4.616;2022-08-19T11:34:32;52332.03;;;-140.72;100.00
38197;BME280;26543;51.976;4.616;2022-08-19T11:36:57;52370.56;;;-140.72;100.00
38197;BME280;26543;51.976;4.616;2022-08-19T11:39:26;52342.16;;;-140.72;100.00
38197;BME280;26543;51.976;4.616;2022-08-19T11:41:52;52315.78;;;-140.72;100.00
38197;BME280;26543;51.976;4.616;2022-08-19T11:44:17;52315.78;;;-140.72;100.00
38197;BME280;26543;51.976;4.616;2022-08-19T11:46:44;52350.28;;;-140.72;100.00
38197;BME280;26543;51.976;4.616;2022-08-19T11:49:15;52309.69;;;-140.72;100.00
38197;BME280;26543;51.976;4.616;2022-08-19T11:51:41;52305.63;;;-140.72;100.00
38197;BME280;26543;51.976;4.616;2022-08-19T11:54:09;52293.47;;;-140.72;100.00
38197;BME280;26543;51.976;4.616;2022-08-19T11:56:37;52319.84;;;-140.72;100.00
38197;BME280;26543;51.976;4.616;2022-08-19T11:59:02;52360.44;;;-140.72;100.00
38197;BME280;26543;51.976;4.616;2022-08-19T12:01:28;52311.72;;;-140.72;100.00
38197;BME280;26543;51.976;4.616;2022-08-19T12:03:55;52332.03;;;-140.72;100.00
38197;BME280;26543;51.976;4.616;2022-08-19T12:06:24;52313.75;;;-140.72;100.00
38197;BME280;26543;51.976;4.616;2022-08-19T12:08:57;52283.31;;;-140.72;100.00
38197;BME280;26543;51.976;4.616;2022-08-19T12:11:23;52313.75;;;-140.72;100.00
38197;BME280;26543;51.976;4.616;2022-08-19T12:13:49;52279.25;;;-140.72;100.00
38197;BME280;26543;51.976;4.616;2022-08-19T12:16:19;52309.69;;;-140.72;100.00
38197;BME280;26543;51.976;4.616;2022-08-19T12:18:45;52269.13;;;-140.72;100.00
38197;BME280;26543;51.976;4.616;2022-08-19T12:21:15;52248.81;;;-140.72;100.00
38197;BME280;26543;51.976;4.616;2022-08-19T12:23:42;52214.34;;;-140.72;100.00
38197;BME280;26543;51.976;4.616;2022-08-19T12:26:10;52218.38;;;-140.72;100.00
38197;BME280;26543;51.976;4.616;2022-08-19T12:28:36;52279.25;;;-140.72;100.00
38197;BME280;26543;51.976;4.616;2022-08-19T12:31:02;52230.56;;;-140.72;100.00
38197;BME280;26543;51.976;4.616;2022-08-19T12:33:27;52287.38;;;-140.72;100.00
38197;BME280;26543;51.976;4.616;2022-08-19T12:35:55;52340.13;;;-140.72;100.00
38197;BME280;26543;51.976;4.616;2022-08-19T12:38:28;52334.03;;;-140.72;100.00